createdAt,value
2022-08-23T00:00:03.312Z,-34
2022-08-23T00:01:09.582Z,-34
2022-08-23T00:02:14.887Z,-34
2022-08-23T00:03:20.177Z,-34
2022-08-23T00:04:25.463Z,-37
2022-08-23T00:05:31.734Z,-34
2022-08-23T00:06:38.015Z,-34
2022-08-23T00:07:44.280Z,-34
2022-08-23T00:08:50.552Z,-34
2022-08-23T00:09:56.829Z,-34
2022-08-23T00:11:03.102Z,-34
2022-08-23T00:12:09.370Z,-34
2022-08-23T00:13:15.642Z,-34
2022-08-23T00:14:21.917Z,-33
2022-08-23T00:15:28.195Z,-34
2022-08-23T00:16:34.455Z,-34
2022-08-23T00:17:40.738Z,-34
2022-08-23T00:18:46.020Z,-34
2022-08-23T00:19:52.290Z,-34
2022-08-23T00:20:58.567Z,-34
2022-08-23T00:22:04.834Z,-34
2022-08-23T00:23:11.104Z,-34
2022-08-23T00:24:17.373Z,-34
2022-08-23T00:25:22.676Z,-33
2022-08-23T00:26:27.962Z,-34
2022-08-23T00:27:33.260Z,-34
2022-08-23T00:28:38.552Z,-33
2022-08-23T00:29:44.822Z,-34
2022-08-23T00:30:51.101Z,-34
2022-08-23T00:31:57.372Z,-34
2022-08-23T00:33:03.644Z,-34
2022-08-23T00:34:09.921Z,-34
2022-08-23T00:35:16.184Z,-33
2022-08-23T00:36:22.464Z,-34
2022-08-23T00:37:28.734Z,-33
2022-08-23T00:38:35.003Z,-34
2022-08-23T00:39:41.271Z,-34
2022-08-23T00:40:47.547Z,-34
2022-08-23T00:41:53.822Z,-34
2022-08-23T00:42:59.108Z,-34
2022-08-23T00:44:05.387Z,-33
2022-08-23T00:45:11.651Z,-34
2022-08-23T00:46:17.919Z,-34
2022-08-23T00:47:24.194Z,-34
2022-08-23T00:48:30.471Z,-34
2022-08-23T00:49:36.740Z,-34
2022-08-23T00:50:42.036Z,-34
2022-08-23T00:51:47.327Z,-33
2022-08-23T00:52:52.625Z,-34
2022-08-23T00:53:57.915Z,-34
2022-08-23T00:55:04.183Z,-33
2022-08-23T00:56:10.455Z,-34
2022-08-23T00:57:16.730Z,-34
2022-08-23T00:58:22.999Z,-34
2022-08-23T00:59:29.274Z,-34
2022-08-23T01:00:35.549Z,-34
2022-08-23T01:01:41.818Z,-34
2022-08-23T01:02:48.094Z,-32
2022-08-23T01:03:54.357Z,-34
2022-08-23T01:05:00.642Z,-34
2022-08-23T01:06:06.903Z,-34
2022-08-23T01:07:13.181Z,-34
2022-08-23T01:08:18.485Z,-34
2022-08-23T01:09:24.738Z,-33
2022-08-23T01:10:31.005Z,-34
2022-08-23T01:11:37.278Z,-32
2022-08-23T01:12:43.552Z,-34
2022-08-23T01:13:49.825Z,-34
2022-08-23T01:14:56.104Z,-34
2022-08-23T01:16:01.400Z,-34
2022-08-23T01:17:06.707Z,-34
2022-08-23T01:18:12.957Z,-33
2022-08-23T01:19:19.229Z,-34
2022-08-23T01:20:25.500Z,-32
2022-08-23T01:21:31.787Z,-34
2022-08-23T01:22:38.044Z,-32
2022-08-23T01:23:44.316Z,-32
2022-08-23T01:24:50.589Z,-34
2022-08-23T01:25:56.862Z,-34
2022-08-23T01:27:03.130Z,-34
2022-08-23T01:28:09.421Z,-32
2022-08-23T01:29:15.676Z,-34
2022-08-23T01:30:21.947Z,-33
2022-08-23T01:31:27.236Z,-34
2022-08-23T01:32:33.516Z,-32
2022-08-23T01:33:39.781Z,-33
2022-08-23T01:34:46.052Z,-33
2022-08-23T01:35:52.330Z,-33
2022-08-23T01:36:58.602Z,-33
2022-08-23T01:38:04.870Z,-33
2022-08-23T01:39:10.170Z,-33
2022-08-23T01:40:15.464Z,-34
2022-08-23T01:41:20.758Z,-34
2022-08-23T01:42:26.059Z,-33
2022-08-23T01:43:32.318Z,-33
2022-08-23T01:44:38.592Z,-34
2022-08-23T01:45:43.888Z,-34
2022-08-23T01:46:49.191Z,-32
2022-08-23T01:47:55.451Z,-34
2022-08-23T01:49:01.718Z,-33
2022-08-23T01:50:08.000Z,-33
2022-08-23T01:51:14.271Z,-33
2022-08-23T01:52:20.539Z,-33
2022-08-23T01:53:26.814Z,-31
2022-08-23T01:54:33.088Z,-32
2022-08-23T01:55:39.355Z,-33
2022-08-23T01:56:45.635Z,-33
2022-08-23T01:57:51.896Z,-33
2022-08-23T01:58:58.175Z,-31
2022-08-23T02:00:04.445Z,-32
2022-08-23T02:01:09.737Z,-33
2022-08-23T02:02:16.015Z,-34
2022-08-23T02:03:22.271Z,-32
2022-08-23T02:04:28.546Z,-34
2022-08-23T02:05:34.818Z,-34
2022-08-23T02:06:41.089Z,-33
2022-08-23T02:07:47.360Z,-34
2022-08-23T02:08:52.658Z,-33
2022-08-23T02:09:57.949Z,-33
2022-08-23T02:11:03.260Z,-34
2022-08-23T02:12:08.567Z,-34
2022-08-23T02:13:14.813Z,-34
2022-08-23T02:14:21.079Z,-33
2022-08-23T02:15:27.355Z,-34
2022-08-23T02:16:33.630Z,-34
2022-08-23T02:17:39.894Z,-33
2022-08-23T02:18:46.177Z,-34
2022-08-23T02:19:52.446Z,-34
2022-08-23T02:20:58.717Z,-31
2022-08-23T02:22:04.988Z,-34
2022-08-23T02:23:11.263Z,-35
2022-08-23T02:24:17.533Z,-34
2022-08-23T02:25:23.814Z,-34
2022-08-23T02:26:29.092Z,-34
2022-08-23T02:27:35.370Z,-34
2022-08-23T02:28:41.634Z,-34
2022-08-23T02:29:47.911Z,-35
2022-08-23T02:30:54.183Z,-34
2022-08-23T02:32:00.445Z,-34
2022-08-23T02:33:06.723Z,-34
2022-08-23T02:34:12.024Z,-34
2022-08-23T02:35:17.314Z,-34
2022-08-23T02:36:22.610Z,-33
2022-08-23T02:37:27.900Z,-33
2022-08-23T02:38:34.170Z,-34
2022-08-23T02:39:40.441Z,-34
2022-08-23T02:40:46.717Z,-34
2022-08-23T02:41:52.989Z,-34
2022-08-23T02:42:59.259Z,-34
2022-08-23T02:44:05.541Z,-34
2022-08-23T02:45:11.803Z,-33
2022-08-23T02:46:18.076Z,-33
2022-08-23T02:47:24.343Z,-34
2022-08-23T02:48:30.622Z,-34
2022-08-23T02:49:36.896Z,-33
2022-08-23T02:50:43.167Z,-33
2022-08-23T02:51:48.454Z,-34
2022-08-23T02:52:54.740Z,-34
2022-08-23T02:54:01.002Z,-33
2022-08-23T02:55:07.284Z,-32
2022-08-23T02:56:13.542Z,-34
2022-08-23T02:57:19.809Z,-32
2022-08-23T02:58:26.097Z,-34
2022-08-23T02:59:31.395Z,-34
2022-08-23T03:00:36.678Z,-34
2022-08-23T03:01:42.961Z,-34
2022-08-23T03:02:48.243Z,-34
2022-08-23T03:03:54.528Z,-32
2022-08-23T03:04:59.802Z,-34
2022-08-23T03:06:06.077Z,-33
2022-08-23T03:07:12.345Z,-34
2022-08-23T03:08:18.620Z,-33
2022-08-23T03:09:24.894Z,-34
2022-08-23T03:10:31.166Z,-34
2022-08-23T03:11:37.440Z,-33
2022-08-23T03:12:43.725Z,-33
2022-08-23T03:13:49.983Z,-32
2022-08-23T03:14:56.251Z,-32
2022-08-23T03:16:02.521Z,-33
2022-08-23T03:17:08.802Z,-33
2022-08-23T03:18:15.067Z,-33
2022-08-23T03:19:20.363Z,-34
2022-08-23T03:20:26.633Z,-33
2022-08-23T03:21:32.901Z,-33
2022-08-23T03:22:39.177Z,-33
2022-08-23T03:23:45.451Z,-34
2022-08-23T03:24:51.720Z,-34
2022-08-23T03:25:57.021Z,-33
2022-08-23T03:27:02.307Z,-34
2022-08-23T03:28:07.602Z,-34
2022-08-23T03:29:12.894Z,-35
2022-08-23T03:30:19.176Z,-33
2022-08-23T03:31:25.437Z,-33
2022-08-23T03:32:31.749Z,-33
2022-08-23T03:33:37.985Z,-34
2022-08-23T03:34:44.253Z,-33
2022-08-23T03:35:50.524Z,-33
2022-08-23T03:36:56.797Z,-33
2022-08-23T03:38:03.079Z,-34
2022-08-23T03:39:09.347Z,-34
2022-08-23T03:40:15.611Z,-34
2022-08-23T03:41:21.890Z,-34
2022-08-23T03:42:28.157Z,-34
2022-08-23T03:43:33.444Z,-34
2022-08-23T03:44:39.715Z,-34
2022-08-23T03:45:45.009Z,-34
2022-08-23T03:46:51.286Z,-34
2022-08-23T03:47:57.560Z,-34
2022-08-23T03:49:03.831Z,-34
2022-08-23T03:50:10.109Z,-34
2022-08-23T03:51:15.404Z,-34
2022-08-23T03:52:20.690Z,-34
2022-08-23T03:53:26.966Z,-34
2022-08-23T03:54:32.261Z,-34
2022-08-23T03:55:37.548Z,-34
2022-08-23T03:56:43.820Z,-34
2022-08-23T03:57:50.091Z,-34
2022-08-23T03:58:56.363Z,-34
2022-08-23T04:00:02.674Z,-34
2022-08-23T04:01:08.909Z,-34
2022-08-23T04:02:15.178Z,-35
2022-08-23T04:03:21.462Z,-34
2022-08-23T04:04:27.731Z,-34
2022-08-23T04:05:33.996Z,-34
2022-08-23T04:06:40.276Z,-34
2022-08-23T04:07:46.535Z,-35
2022-08-23T04:08:52.815Z,-34
2022-08-23T04:09:58.098Z,-35
2022-08-23T04:11:04.375Z,-34
2022-08-23T04:12:10.642Z,-34
2022-08-23T04:13:16.931Z,-34
2022-08-23T04:14:23.195Z,-35
2022-08-23T04:15:29.461Z,-35
2022-08-23T04:16:35.735Z,-34
2022-08-23T04:17:41.035Z,-35
2022-08-23T04:18:46.322Z,-34
2022-08-23T04:19:51.624Z,-34
2022-08-23T04:20:56.936Z,-34
2022-08-23T04:22:03.178Z,-34
2022-08-23T04:23:09.458Z,-35
2022-08-23T04:24:15.734Z,-34
2022-08-23T04:25:22.001Z,-34
2022-08-23T04:26:28.271Z,-34
2022-08-23T04:27:34.546Z,-35
2022-08-23T04:28:40.811Z,-34
2022-08-23T04:29:47.085Z,-34
2022-08-23T04:30:53.366Z,-35
2022-08-23T04:31:59.627Z,-32
2022-08-23T04:33:05.903Z,-34
2022-08-23T04:34:12.172Z,-33
2022-08-23T04:35:17.458Z,-34
2022-08-23T04:36:23.735Z,-34
2022-08-23T04:37:30.006Z,-34
2022-08-23T04:38:36.275Z,-34
2022-08-23T04:39:42.560Z,-34
2022-08-23T04:40:48.823Z,-34
2022-08-23T04:41:55.110Z,-35
2022-08-23T04:43:00.401Z,-33
2022-08-23T04:44:05.686Z,-33
2022-08-23T04:45:10.980Z,-34
2022-08-23T04:46:16.274Z,-34
2022-08-23T04:47:22.546Z,-36
2022-08-23T04:48:28.819Z,-31
2022-08-23T04:49:35.087Z,-34
2022-08-23T04:50:41.362Z,-35
2022-08-23T04:51:47.633Z,-34
2022-08-23T04:52:53.902Z,-34
2022-08-23T04:54:00.181Z,-35
2022-08-23T04:55:06.448Z,-34
2022-08-23T04:56:12.715Z,-34
2022-08-23T04:57:19.001Z,-35
2022-08-23T04:58:25.262Z,-34
2022-08-23T04:59:31.540Z,-34
2022-08-23T05:00:36.833Z,-34
2022-08-23T05:01:43.100Z,-34
2022-08-23T05:02:49.372Z,-35
2022-08-23T05:03:55.644Z,-34
2022-08-23T05:05:01.916Z,-33
2022-08-23T05:06:08.188Z,-36
2022-08-23T05:07:14.460Z,-34
2022-08-23T05:08:19.758Z,-34
2022-08-23T05:09:25.054Z,-34
2022-08-23T05:10:30.343Z,-34
2022-08-23T05:11:35.643Z,-34
2022-08-23T05:12:41.911Z,-35
2022-08-23T05:13:48.179Z,-33
2022-08-23T05:14:54.459Z,-34
2022-08-23T05:16:00.723Z,-34
2022-08-23T05:17:06.995Z,-34
2022-08-23T05:18:13.268Z,-34
2022-08-23T05:19:19.540Z,-35
2022-08-23T05:20:25.817Z,-34
2022-08-23T05:21:32.082Z,-34
2022-08-23T05:22:38.351Z,-34
2022-08-23T05:23:44.629Z,-34
2022-08-23T05:24:50.900Z,-34
2022-08-23T05:25:56.188Z,-35
2022-08-23T05:27:02.459Z,-35
2022-08-23T05:28:08.736Z,-34
2022-08-23T05:29:15.005Z,-34
2022-08-23T05:30:21.274Z,-34
2022-08-23T05:31:27.550Z,-34
2022-08-23T05:32:33.839Z,-34
2022-08-23T05:33:39.121Z,-32
2022-08-23T05:34:44.414Z,-34
2022-08-23T05:35:49.712Z,-34
2022-08-23T05:36:54.996Z,-34
2022-08-23T05:38:01.275Z,-33
2022-08-23T05:39:07.545Z,-32
2022-08-23T05:40:13.813Z,-34
2022-08-23T05:41:20.081Z,-34
2022-08-23T05:42:26.356Z,-33
2022-08-23T05:43:32.627Z,-34
2022-08-23T05:44:38.905Z,-33
2022-08-23T05:45:45.186Z,-34
2022-08-23T05:46:51.442Z,-33
2022-08-23T05:47:57.716Z,-33
2022-08-23T05:49:03.995Z,-33
2022-08-23T05:50:10.260Z,-32
2022-08-23T05:51:15.551Z,-33
2022-08-23T05:52:21.819Z,-32
2022-08-23T05:53:28.094Z,-33
2022-08-23T05:54:34.369Z,-34
2022-08-23T05:55:40.640Z,-34
2022-08-23T05:56:46.931Z,-32
2022-08-23T05:57:53.183Z,-33
2022-08-23T05:58:58.484Z,-33
2022-08-23T06:00:03.772Z,-30
2022-08-23T06:01:10.040Z,-31
2022-08-23T06:02:16.314Z,-32
2022-08-23T06:03:22.587Z,-33
2022-08-23T06:04:27.885Z,-32
2022-08-23T06:05:33.171Z,-32
2022-08-23T06:06:39.442Z,-32
2022-08-23T06:07:45.716Z,-34
2022-08-23T06:08:51.986Z,-31
2022-08-23T06:09:58.266Z,-32
2022-08-23T06:11:04.534Z,-32
2022-08-23T06:12:10.813Z,-32
2022-08-23T06:13:17.074Z,-31
2022-08-23T06:14:23.357Z,-32
2022-08-23T06:15:29.621Z,-29
2022-08-23T06:16:35.897Z,-31
2022-08-23T06:17:42.163Z,-32
2022-08-23T06:18:48.469Z,-31
2022-08-23T06:19:53.727Z,-31
2022-08-23T06:21:00.000Z,-32
2022-08-23T06:22:06.271Z,-31
2022-08-23T06:23:12.554Z,-32
2022-08-23T06:24:18.821Z,-32
2022-08-23T06:25:25.087Z,-31
2022-08-23T06:26:31.364Z,-33
2022-08-23T06:27:36.677Z,-31
2022-08-23T06:28:41.959Z,-31
2022-08-23T06:29:47.246Z,-31
2022-08-23T06:30:52.531Z,-31
2022-08-23T06:31:58.808Z,-31
2022-08-23T06:33:05.086Z,-31
2022-08-23T06:34:11.351Z,-31
2022-08-23T06:35:17.629Z,-31
2022-08-23T06:36:23.893Z,-31
2022-08-23T06:37:30.168Z,-31
2022-08-23T06:38:36.434Z,-31
2022-08-23T06:39:42.713Z,-29
2022-08-23T06:40:48.984Z,-30
2022-08-23T06:41:55.255Z,-29
2022-08-23T06:43:01.536Z,-30
2022-08-23T06:44:07.802Z,-30
2022-08-23T06:45:13.093Z,-31
2022-08-23T06:46:19.368Z,-30
2022-08-23T06:47:25.640Z,-29
2022-08-23T06:48:31.901Z,-31
2022-08-23T06:49:38.185Z,-29
2022-08-23T06:50:44.453Z,-31
2022-08-23T06:51:50.722Z,-30
2022-08-23T06:52:56.993Z,-31
2022-08-23T06:54:03.273Z,-29
2022-08-23T06:55:09.555Z,-30
2022-08-23T06:56:15.809Z,-30
2022-08-23T06:57:22.080Z,-30
2022-08-23T06:58:28.358Z,-31
2022-08-23T06:59:33.670Z,-26
2022-08-23T07:00:39.913Z,-29
2022-08-23T07:01:46.190Z,-30
2022-08-23T07:02:51.484Z,-29
2022-08-23T07:03:56.774Z,-31
2022-08-23T07:05:02.071Z,-28
2022-08-23T07:06:07.378Z,-28
2022-08-23T07:07:13.631Z,-29
2022-08-23T07:08:19.908Z,-28
2022-08-23T07:09:26.198Z,-31
2022-08-23T07:10:32.449Z,-28
2022-08-23T07:11:38.718Z,-29
2022-08-23T07:12:44.993Z,-28
2022-08-23T07:13:51.267Z,-30
2022-08-23T07:14:57.542Z,-29
2022-08-23T07:16:03.812Z,-28
2022-08-23T07:17:10.094Z,-28
2022-08-23T07:18:16.355Z,-28
2022-08-23T07:19:22.627Z,-31
2022-08-23T07:20:28.898Z,-28
2022-08-23T07:21:34.185Z,-28
2022-08-23T07:22:40.458Z,-27
2022-08-23T07:23:46.729Z,-28
2022-08-23T07:24:52.999Z,-28
2022-08-23T07:25:59.274Z,-28
2022-08-23T07:27:04.569Z,-28
2022-08-23T07:28:09.870Z,-28
2022-08-23T07:29:15.156Z,-29
2022-08-23T07:30:20.457Z,-28
2022-08-23T07:31:25.759Z,-28
2022-08-23T07:32:32.018Z,-27
2022-08-23T07:33:38.295Z,-28
2022-08-23T07:34:44.561Z,-28
2022-08-23T07:35:50.833Z,-29
2022-08-23T07:36:57.101Z,-28
2022-08-23T07:38:03.379Z,-29
2022-08-23T07:39:09.653Z,-26
2022-08-23T07:40:15.921Z,-25
2022-08-23T07:41:22.210Z,-27
2022-08-23T07:42:28.462Z,-28
2022-08-23T07:43:34.739Z,-29
2022-08-23T07:44:41.014Z,-28
2022-08-23T07:45:46.300Z,-28
2022-08-23T07:46:52.565Z,-28
2022-08-23T07:47:58.851Z,-28
2022-08-23T07:49:05.113Z,-27
2022-08-23T07:50:11.384Z,-27
2022-08-23T07:51:17.661Z,-28
2022-08-23T07:52:23.929Z,-28
2022-08-23T07:53:29.246Z,-28
2022-08-23T07:54:34.521Z,-28
2022-08-23T07:55:39.820Z,-28
2022-08-23T07:56:45.114Z,-28
2022-08-23T07:57:51.407Z,-28
2022-08-23T07:58:57.657Z,-28
2022-08-23T08:00:03.942Z,-28
2022-08-23T08:01:10.195Z,-28
2022-08-23T08:02:16.473Z,-28
2022-08-23T08:03:22.742Z,-28
2022-08-23T08:04:29.011Z,-26
2022-08-23T08:05:35.283Z,-28
2022-08-23T08:06:41.551Z,-28
2022-08-23T08:07:47.823Z,-28
2022-08-23T08:08:54.097Z,-27
2022-08-23T08:10:00.372Z,-27
2022-08-23T08:11:05.663Z,-28
2022-08-23T08:12:11.946Z,-28
2022-08-23T08:13:18.210Z,-27
2022-08-23T08:14:24.477Z,-26
2022-08-23T08:15:30.748Z,-27
2022-08-23T08:16:37.020Z,-27
2022-08-23T08:17:43.287Z,-28
2022-08-23T08:18:49.571Z,-28
2022-08-23T08:19:55.832Z,-27
2022-08-23T08:21:02.107Z,-28
2022-08-23T08:22:08.378Z,-26
2022-08-23T08:23:14.656Z,-28
2022-08-23T08:24:20.922Z,-28
2022-08-23T08:25:26.214Z,-26
2022-08-23T08:26:32.483Z,-27
2022-08-23T08:27:38.758Z,-28
2022-08-23T08:28:45.034Z,-27
2022-08-23T08:29:51.297Z,-25
2022-08-23T08:30:57.579Z,-26
2022-08-23T08:32:03.837Z,-26
2022-08-23T08:33:09.147Z,-26
2022-08-23T08:34:14.433Z,-25
2022-08-23T08:35:19.730Z,-26
2022-08-23T08:36:25.020Z,-27
2022-08-23T08:37:31.290Z,-26
2022-08-23T08:38:37.563Z,-27
2022-08-23T08:39:43.837Z,-26
2022-08-23T08:40:50.106Z,-27
2022-08-23T08:41:56.378Z,-26
2022-08-23T08:43:02.654Z,-26
2022-08-23T08:44:08.927Z,-27
2022-08-23T08:45:15.202Z,-26
2022-08-23T08:46:21.470Z,-26
2022-08-23T08:47:27.759Z,-27
2022-08-23T08:48:34.007Z,-27
2022-08-23T08:49:40.279Z,-26
2022-08-23T08:50:45.573Z,-26
2022-08-23T08:51:51.847Z,-26
2022-08-23T08:52:58.121Z,-24
2022-08-23T08:54:04.388Z,-26
2022-08-23T08:55:10.685Z,-26
2022-08-23T08:56:16.935Z,-27
2022-08-23T08:57:23.208Z,-25
2022-08-23T08:58:28.513Z,-26
2022-08-23T08:59:33.792Z,-25
2022-08-23T09:00:40.060Z,-26
2022-08-23T09:01:45.360Z,-26
2022-08-23T09:02:50.651Z,-26
2022-08-23T09:03:56.940Z,-26
2022-08-23T09:05:03.196Z,-26
2022-08-23T09:06:09.468Z,-27
2022-08-23T09:07:15.743Z,-26
2022-08-23T09:08:22.032Z,-26
2022-08-23T09:09:28.284Z,-25
2022-08-23T09:10:34.554Z,-26
2022-08-23T09:11:40.826Z,-24
2022-08-23T09:12:47.096Z,-26
2022-08-23T09:13:53.371Z,-25
2022-08-23T09:14:59.643Z,-26
2022-08-23T09:16:05.924Z,-26
2022-08-23T09:17:11.202Z,-26
2022-08-23T09:18:17.482Z,-25
2022-08-23T09:19:23.752Z,-25
2022-08-23T09:20:30.049Z,-25
2022-08-23T09:21:36.301Z,-25
2022-08-23T09:22:42.571Z,-26
2022-08-23T09:23:48.839Z,-21
2022-08-23T09:24:54.136Z,-25
2022-08-23T09:25:59.432Z,-23
2022-08-23T09:27:04.728Z,-23
2022-08-23T09:28:10.018Z,-24
2022-08-23T09:29:16.282Z,-24
2022-08-23T09:30:22.564Z,-21
2022-08-23T09:31:28.829Z,-22
2022-08-23T09:32:35.106Z,-19
2022-08-23T09:33:41.375Z,-21
2022-08-23T09:34:47.650Z,-19
2022-08-23T09:35:53.922Z,-20
2022-08-23T09:37:00.214Z,-20
2022-08-23T09:38:06.974Z,-18
2022-08-23T09:39:12.743Z,-18
2022-08-23T09:40:19.006Z,-18
2022-08-23T09:41:25.277Z,-16
2022-08-23T09:42:30.573Z,-17
2022-08-23T09:43:36.838Z,-17
2022-08-23T09:44:43.117Z,-17
2022-08-23T09:45:49.390Z,-16
2022-08-23T09:46:55.666Z,-16
2022-08-23T09:48:01.930Z,-17
2022-08-23T09:49:08.211Z,-16
2022-08-23T09:50:13.506Z,-16
2022-08-23T09:51:18.789Z,-16
2022-08-23T09:52:24.095Z,-15
2022-08-23T09:53:29.383Z,-15
2022-08-23T09:54:35.648Z,-16
2022-08-23T09:55:41.924Z,-16
2022-08-23T09:56:48.203Z,-15
2022-08-23T09:57:54.470Z,-15
2022-08-23T09:59:00.738Z,-15
2022-08-23T10:00:07.016Z,-15
2022-08-23T10:01:13.297Z,-15
2022-08-23T10:02:19.567Z,-14
2022-08-23T10:03:25.826Z,-15
2022-08-23T10:04:32.105Z,-15
2022-08-23T10:05:38.376Z,-15
2022-08-23T10:06:44.660Z,-15
2022-08-23T10:07:49.947Z,-17
2022-08-23T10:08:56.206Z,-14
2022-08-23T10:10:02.479Z,-13
2022-08-23T10:11:08.752Z,-14
2022-08-23T10:12:15.027Z,-15
2022-08-23T10:13:21.293Z,-13
2022-08-23T10:14:27.576Z,-13
2022-08-23T10:15:32.867Z,-14
2022-08-23T10:16:38.150Z,-13
2022-08-23T10:17:43.463Z,-14
2022-08-23T10:18:48.756Z,-13
2022-08-23T10:19:55.015Z,-13
2022-08-23T10:21:01.291Z,-13
2022-08-23T10:22:07.556Z,-12
2022-08-23T10:23:13.831Z,-12
2022-08-23T10:24:20.107Z,-12
2022-08-23T10:25:26.369Z,-12
2022-08-23T10:26:32.652Z,-12
2022-08-23T10:27:38.917Z,-12
2022-08-23T10:28:45.188Z,-12
2022-08-23T10:29:51.462Z,-12
2022-08-23T10:30:57.737Z,-12
2022-08-23T10:32:04.005Z,-9
2022-08-23T10:33:09.297Z,-12
2022-08-23T10:34:15.579Z,-11
2022-08-23T10:35:21.833Z,-12
2022-08-23T10:36:28.111Z,-12
2022-08-23T10:37:34.375Z,-12
2022-08-23T10:38:40.652Z,-12
2022-08-23T10:39:46.918Z,-12
2022-08-23T10:40:52.220Z,-12
2022-08-23T10:41:57.505Z,-12
2022-08-23T10:43:02.804Z,-12
2022-08-23T10:44:08.103Z,-12
2022-08-23T10:45:14.365Z,-12
2022-08-23T10:46:20.650Z,-12
2022-08-23T10:47:26.907Z,-12
2022-08-23T10:48:33.183Z,-12
2022-08-23T10:49:39.455Z,-13
2022-08-23T10:50:45.729Z,-13
2022-08-23T10:51:51.997Z,-15
2022-08-23T10:52:58.273Z,-12
2022-08-23T10:54:04.544Z,-13
2022-08-23T10:55:10.822Z,-12
2022-08-23T10:56:17.083Z,-12
2022-08-23T10:57:23.379Z,-13
2022-08-23T10:58:28.644Z,-12
2022-08-23T10:59:34.928Z,-13
2022-08-23T11:00:41.201Z,-14
2022-08-23T11:01:47.479Z,-14
2022-08-23T11:02:53.737Z,-13
2022-08-23T11:04:00.026Z,-13
2022-08-23T11:05:06.282Z,-12
2022-08-23T11:06:11.572Z,-14
2022-08-23T11:07:17.863Z,-14
2022-08-23T11:08:23.160Z,-14
2022-08-23T11:09:28.442Z,-14
2022-08-23T11:10:34.717Z,-15
2022-08-23T11:11:40.993Z,-13
2022-08-23T11:12:47.280Z,-15
2022-08-23T11:13:53.542Z,-13
2022-08-23T11:14:59.808Z,-13
2022-08-23T11:16:06.084Z,-14
2022-08-23T11:17:12.357Z,-14
2022-08-23T11:18:18.624Z,-12
2022-08-23T11:19:24.898Z,-12
2022-08-23T11:20:31.170Z,-14
2022-08-23T11:21:37.441Z,-13
2022-08-23T11:22:43.716Z,-15
2022-08-23T11:23:49.007Z,-15
2022-08-23T11:24:55.277Z,-14
2022-08-23T11:26:01.545Z,-16
2022-08-23T11:27:07.827Z,-15
2022-08-23T11:28:14.086Z,-14
2022-08-23T11:29:20.357Z,-14
2022-08-23T11:30:26.628Z,-14
2022-08-23T11:31:31.930Z,-13
2022-08-23T11:32:37.222Z,-12
2022-08-23T11:33:43.479Z,-12
2022-08-23T11:34:48.808Z,-14
2022-08-23T11:35:54.073Z,-13
2022-08-23T11:37:00.345Z,-13
2022-08-23T11:38:06.633Z,-14
2022-08-23T11:39:12.891Z,-14
2022-08-23T11:40:19.160Z,-13
2022-08-23T11:41:25.431Z,-12
2022-08-23T11:42:31.702Z,-14
2022-08-23T11:43:37.977Z,-13
2022-08-23T11:44:44.274Z,-14
2022-08-23T11:45:50.517Z,-15
2022-08-23T11:46:56.797Z,-12
2022-08-23T11:48:03.064Z,-16
2022-08-23T11:49:09.352Z,-14
2022-08-23T11:50:14.628Z,-14
2022-08-23T11:51:20.901Z,-14
2022-08-23T11:52:27.169Z,-13
2022-08-23T11:53:33.431Z,-11
2022-08-23T11:54:39.712Z,-14
2022-08-23T11:55:45.981Z,-10
2022-08-23T11:56:52.256Z,-12
2022-08-23T11:57:57.553Z,-12
2022-08-23T11:59:02.854Z,-12
2022-08-23T12:00:08.137Z,-12
2022-08-23T12:01:13.431Z,-12
2022-08-23T12:02:19.717Z,-13
2022-08-23T12:03:25.973Z,-12
2022-08-23T12:04:32.242Z,-14
2022-08-23T12:05:38.534Z,-12
2022-08-23T12:06:44.793Z,-12
2022-08-23T12:07:51.060Z,-12
2022-08-23T12:08:57.330Z,-12
2022-08-23T12:10:03.607Z,-11
2022-08-23T12:11:09.881Z,-11
2022-08-23T12:12:16.175Z,-11
2022-08-23T12:13:22.418Z,-10
2022-08-23T12:14:28.690Z,-12
2022-08-23T12:15:33.983Z,-11
2022-08-23T12:16:40.251Z,-12
2022-08-23T12:17:46.527Z,-12
2022-08-23T12:18:52.799Z,-12
2022-08-23T12:19:59.068Z,-11
2022-08-23T12:21:05.337Z,-12
2022-08-23T12:22:11.607Z,-12
2022-08-23T12:23:16.912Z,-12
2022-08-23T12:24:22.192Z,-11
2022-08-23T12:26:34.746Z,-11
2022-08-23T12:27:41.019Z,-11
2022-08-23T12:28:46.315Z,-12
2022-08-23T12:29:51.603Z,-12
2022-08-23T12:30:57.884Z,-12
2022-08-23T12:32:04.145Z,-12
2022-08-23T12:33:10.425Z,-12
2022-08-23T12:34:16.684Z,-11
2022-08-23T12:35:22.962Z,-12
2022-08-23T12:36:29.237Z,-12
2022-08-23T12:37:35.511Z,-11
2022-08-23T12:38:41.769Z,-12
2022-08-23T12:39:48.047Z,-11
2022-08-23T12:40:54.318Z,-10
2022-08-23T12:42:00.593Z,-11
2022-08-23T12:43:06.859Z,-9
2022-08-23T12:44:12.158Z,-10
2022-08-23T12:45:18.420Z,-10
2022-08-23T12:46:24.700Z,-10
2022-08-23T12:47:30.967Z,-10
2022-08-23T12:48:37.243Z,-11
2022-08-23T12:49:43.511Z,-9
2022-08-23T12:50:49.778Z,-10
2022-08-23T12:51:56.062Z,-10
2022-08-23T12:53:01.353Z,-10
2022-08-23T12:54:06.646Z,-10
2022-08-23T12:55:11.941Z,-11
2022-08-23T12:56:17.228Z,-10
2022-08-23T12:57:23.524Z,-11
2022-08-23T12:58:29.775Z,-10
2022-08-23T12:59:36.051Z,-11
2022-08-23T13:00:42.320Z,-11
2022-08-23T13:01:48.585Z,-9
2022-08-23T13:02:54.862Z,-9
2022-08-23T13:04:01.132Z,-9
2022-08-23T13:05:07.401Z,-10
2022-08-23T13:06:13.673Z,-11
2022-08-23T13:07:19.951Z,-9
2022-08-23T13:08:26.219Z,-9
2022-08-23T13:09:32.489Z,-9
2022-08-23T13:10:37.792Z,-9
2022-08-23T13:11:44.089Z,-9
2022-08-23T13:12:50.325Z,-9
2022-08-23T13:13:56.593Z,-9
2022-08-23T13:15:02.871Z,-9
2022-08-23T13:16:09.140Z,-9
2022-08-23T13:17:15.414Z,-9
2022-08-23T13:18:20.716Z,-9
2022-08-23T13:19:25.999Z,-10
2022-08-23T13:20:31.300Z,-11
2022-08-23T13:21:36.605Z,-12
2022-08-23T13:22:42.861Z,-12
2022-08-23T13:23:49.134Z,-13
2022-08-23T13:24:55.403Z,-11
2022-08-23T13:26:01.679Z,-12
2022-08-23T13:27:07.953Z,-12
2022-08-23T13:28:14.228Z,-11
2022-08-23T13:29:20.498Z,-11
2022-08-23T13:30:26.774Z,-9
2022-08-23T13:31:33.048Z,-11
2022-08-23T13:32:39.316Z,-9
2022-08-23T13:33:45.593Z,-9
2022-08-23T13:34:51.855Z,-10
2022-08-23T13:35:57.166Z,-10
2022-08-23T13:37:03.417Z,-10
2022-08-23T13:38:09.694Z,-12
2022-08-23T13:39:15.967Z,-9
2022-08-23T13:40:22.243Z,-9
2022-08-23T13:41:28.515Z,-9
2022-08-23T13:42:34.783Z,-10
2022-08-23T13:43:40.086Z,-9
2022-08-23T13:44:45.365Z,-9
2022-08-23T13:45:51.646Z,-9
2022-08-23T13:46:56.947Z,-9
2022-08-23T13:48:02.230Z,-10
2022-08-23T13:49:08.507Z,-9
2022-08-23T13:50:14.786Z,-9
2022-08-23T13:51:21.056Z,-10
2022-08-23T13:52:27.328Z,-9
2022-08-23T13:53:33.588Z,-11
2022-08-23T13:54:39.867Z,-11
2022-08-23T13:55:46.140Z,-10
2022-08-23T13:56:52.408Z,-10
2022-08-23T13:57:58.684Z,-9
2022-08-23T13:59:04.975Z,-11
2022-08-23T14:00:11.240Z,-9
2022-08-23T14:01:17.517Z,-10
2022-08-23T14:02:22.787Z,-10
2022-08-23T14:03:29.058Z,-10
2022-08-23T14:04:35.330Z,-11
2022-08-23T14:05:41.602Z,-12
2022-08-23T14:06:47.877Z,-11
2022-08-23T14:07:54.149Z,-11
2022-08-23T14:09:00.424Z,-10
2022-08-23T14:10:05.728Z,-12
2022-08-23T14:11:11.015Z,-11
2022-08-23T14:12:16.313Z,-12
2022-08-23T14:13:21.608Z,-10
2022-08-23T14:14:27.877Z,-12
2022-08-23T14:15:34.153Z,-12
2022-08-23T14:16:40.422Z,-12
2022-08-23T14:17:46.705Z,-12
2022-08-23T14:18:52.970Z,-13
2022-08-23T14:19:59.235Z,-12
2022-08-23T14:21:05.507Z,-13
2022-08-23T14:22:11.776Z,-15
2022-08-23T14:23:18.055Z,-14
2022-08-23T14:24:24.326Z,-14
2022-08-23T14:25:30.601Z,-15
2022-08-23T14:26:36.865Z,-14
2022-08-23T14:27:42.166Z,-14
2022-08-23T14:28:48.427Z,-15
2022-08-23T14:29:54.710Z,-15
2022-08-23T14:31:00.972Z,-14
2022-08-23T14:32:07.250Z,-16
2022-08-23T14:33:13.512Z,-15
2022-08-23T14:34:19.791Z,-15
2022-08-23T14:35:25.099Z,-15
2022-08-23T14:36:30.382Z,-16
2022-08-23T14:37:36.650Z,-15
2022-08-23T14:38:41.947Z,-15
2022-08-23T14:39:47.247Z,-16
2022-08-23T14:40:53.516Z,-16
2022-08-23T14:41:59.801Z,-15
2022-08-23T14:43:06.050Z,-15
2022-08-23T14:44:12.320Z,-16
2022-08-23T14:45:18.597Z,-15
2022-08-23T14:46:24.863Z,-15
2022-08-23T14:47:31.138Z,-16
2022-08-23T14:48:37.408Z,-15
2022-08-23T14:49:42.701Z,-15
2022-08-23T14:50:48.975Z,-15
2022-08-23T14:51:55.250Z,-15
2022-08-23T14:53:01.519Z,-15
2022-08-23T14:54:07.789Z,-15
2022-08-23T14:55:14.059Z,-17
2022-08-23T14:56:20.332Z,-16
2022-08-23T14:57:26.613Z,-16
2022-08-23T14:58:32.888Z,-15
2022-08-23T14:59:39.150Z,-16
2022-08-23T15:00:45.419Z,-16
2022-08-23T15:01:50.727Z,-18
2022-08-23T15:02:56.020Z,-16
2022-08-23T15:04:02.284Z,-18
2022-08-23T15:05:08.551Z,-17
2022-08-23T15:06:14.828Z,-16
2022-08-23T15:07:21.096Z,-16
2022-08-23T15:08:27.388Z,-17
2022-08-23T15:09:33.649Z,-16
2022-08-23T15:10:39.906Z,-17
2022-08-23T15:11:46.177Z,-17